Edwardsville, AL (36261)

6:03 AM CDT on July 24, 2014 (GMT -0500)
Choccolocco Community (KALANNIS4) Elev 865 ft | 33.69 °N, 85.72 °W | Change Station

Current weather conditions updated 12 seconds ago

Partly Cloudy
Partly Cloudy
71.1 °F
Feels Like 73 °F
N
0.0
Wind Variable Wind from NW
Gusts 0.0 mph

Today is forecast to be Cooler than yesterday. Thunderstorms.

Today
High -- | Low -- °F
--% Chance of Precip.
Yesterday
High -- | Low -- °F
Precip. -- in
5:48 AM 7:48 PM
Waning Crescent, 6% visible
Pressure 30.02 in
Visibility 7.0 miles
Clouds Scattered Clouds 5500 ft
Heat Index 73 °F
Dew Point 62 °F
Humidity 74%
Rainfall 0.00 in
Snow Depth Not available.
UV 0 out of 12
Pollen 3.70 out of 12
Air Quality Not available.
Flu Activity Not available.
METAR KCTJ 241055Z AUTO 00000KT 7SM SCT055 20/20 A3002 RMK AO2

More Conditions Fewer Conditions

Pressure 30.02 in
Visibility 7.0 miles
Clouds Scattered Clouds 5500 ft
Heat Index 73 °F
Dew Point 62 °F
Humidity 74%
Rainfall 0.00 in
Snow Depth Not available.
UV 0 out of 12
Pollen 3.70 out of 12
Air Quality Not available.
Flu Activity Not available.
METAR KCTJ 241055Z AUTO 00000KT 7SM SCT055 20/20 A3002 RMK AO2

More Conditions Fewer Conditions

10-Day Weather Forecast

Almanac

Astronomy

Jul. 24, 2014 Rise Set
Actual Time 5:48 AM CDT 7:48 PM CDT
Civil Twilight 5:20 AM CDT 8:15 PM CDT
Nautical Twilight 4:46 AM CDT 8:49 PM CDT
Astronomical Twilight 4:10 AM CDT 9:25 PM CDT
Moon 3:54 AM CDT 6:04 PM CDT
Length of Visible Light 14h 55m
Length of Day
13h 59m
Tomorrow will be 1m 21s shorter.
Waning Crescent, 6% of the Moon is Illuminated
Today
Waning Crescent
Jul 26
New
Aug 3
First Quarter
Aug 10
Full
Aug 17
Last Quarter

Today's Extremes

State Highs State Lows

Community

WunderPhotos

Upload Photos

1,736,971 photos uploaded!

Nearby

Snow Depth

Station Depth Elevation
No new snow has been reported.

Earthquake Activity

City Distance Mag. Time & Date
No recent earthquake activity has been reported nearby.
Minimum magnitude displayed is 2.5.

Coastal Water Temperatures

Place Temperature
No Stations Reporting

Nearby Weather Stations

Station Location Temp. Heat Index Dew Point Humidity Wind Precip. Elev Updated Type
Choccolocco Community, Anniston, AL 71.1 °F 73 °F 62 °F 74% NW  at  0.0 mph 0.00 in / hr 865 ft 6:03 AM CDT Rapid Fire
Chulafinnee, AL 68.9 °F - 40 °F 35% North  at  0.0 mph 0.00 in / hr 928 ft 6:03 AM CDT Rapid Fire
RAWS MT. LONGLEAF AL, Fort McClellan, AL 69 °F - 68 °F 97% ENE  at  2 mph 0.00 in / hr 1049 ft 4:46 AM CDT MADIS
APRSWXNET Bowdon G, Bowdon, GA 69 °F - 60 °F 73% WNW  at  0 mph 0.00 in / hr 1017 ft 6:31 AM EDT MADIS
Wesson Aviation, Oxford, AL 69.2 °F - 68 °F 97% ESE  at  0.0 mph 0.00 in / hr 659 ft 6:02 AM CDT Normal
Green Acres, Oxford, AL 69.6 °F - 69 °F 99% SSW  at  0.0 mph - / hr 725 ft 5:49 AM CDT Normal

Show More Stations Show Fewer Stations